Startpagina
METAR-TAF:

METAR-TAF

Vliegvelden :

Pointe-à-Pitre, Guadeloupe

breedte: 16-16N, lengte: 061-31W, hoogte: 11 m

Actueel weer

Dit bericht is 33 minuten geleden gemaakt, om 04:00 UTC
Weinig wind
Temperatuur 22°C
Vochtigheid 88%
Druk 1016 hPa
Zicht 10 km of meer
geen wolken onder 1500 m en geen cumulonimbus

METAR: TFFR 140400Z AUTO 00000KT CAVOK 22/20 Q1016 NOSIG

Tijdstip: 00:33 (04:33 UTC)

Verwachting

Dit bericht is 5 uur en het 33 minuten geleden gemaakt, om 23:00 UTC
Verwachting geldig van 14 om 00 UTC tot 14 om 24 UTC
Wind 3 kt uit variabele richting
Zicht 10 km of meer
Verspreide wolken op 3000 ft
Wijzigt naar
van 14 om 11 UTC tot 14 om 13 UTC
Wind 9 kt uit het oosten
Kans 30% :
Tijdelijke
van 14 om 10 UTC tot 14 om 22 UTC
Zicht: 4000 m
Verspreide wolken op 1500 ft, Stapelwolken.
regenbuien

TAF: TFFR 132300Z 1400/1424 VRB03KT 9999 SCT030 BECMG 1411/1413 10009KT PROB30 TEMPO 1410/1422 4000 SHRA SCT015TCU

Waarnemingen en weersverwachtingen van meer dan 4000 vliegvelden (METAR en TAF).

De beschikbare stations zijn de gele en rode punten op de kaart.

Ga met uw muis naar het station om de naam te zien.

Klik dan om waarnemingen en weersverwachtingen te zien.

kaart wijzigen: klik op de groene knoppen met een zwart kruis om in te zoomen, op de groene knop met een streepje om uit te zoomen of op de groene pijlen voor aangrenzende kaarten.


METAR-TAF: